sensor_id;sensor_type;location;lat;lon;timestamp;temperature;humidity
28773;DHT22;15925;51.222;5.678;2022-08-03T00:01:39;21.90;99.90
28773;DHT22;15925;51.222;5.678;2022-08-03T00:04:06;21.90;99.90
28773;DHT22;15925;51.222;5.678;2022-08-03T00:06:32;21.90;99.90
28773;DHT22;15925;51.222;5.678;2022-08-03T00:08:57;21.80;99.90
28773;DHT22;15925;51.222;5.678;2022-08-03T00:11:24;21.80;99.90
28773;DHT22;15925;51.222;5.678;2022-08-03T00:13:51;21.80;99.90
28773;DHT22;15925;51.222;5.678;2022-08-03T00:16:17;21.80;99.90
28773;DHT22;15925;51.222;5.678;2022-08-03T00:18:43;21.70;99.90
28773;DHT22;15925;51.222;5.678;2022-08-03T00:21:09;21.70;99.90
28773;DHT22;15925;51.222;5.678;2022-08-03T00:23:36;21.70;99.90
28773;DHT22;15925;51.222;5.678;2022-08-03T00:26:02;21.60;99.90
28773;DHT22;15925;51.222;5.678;2022-08-03T00:28:27;21.60;99.90
28773;DHT22;15925;51.222;5.678;2022-08-03T00:30:53;21.60;99.90
28773;DHT22;15925;51.222;5.678;2022-08-03T00:33:21;21.50;99.90
28773;DHT22;15925;51.222;5.678;2022-08-03T00:35:47;21.50;99.90
28773;DHT22;15925;51.222;5.678;2022-08-03T00:38:13;21.50;99.90
28773;DHT22;15925;51.222;5.678;2022-08-03T00:40:39;21.40;99.90
28773;DHT22;15925;51.222;5.678;2022-08-03T00:43:06;21.40;99.90
28773;DHT22;15925;51.222;5.678;2022-08-03T00:45:38;21.40;99.90
28773;DHT22;15925;51.222;5.678;2022-08-03T00:48:06;21.40;99.90
28773;DHT22;15925;51.222;5.678;2022-08-03T00:50:39;21.30;99.90
28773;DHT22;15925;51.222;5.678;2022-08-03T00:53:05;21.30;99.90
28773;DHT22;15925;51.222;5.678;2022-08-03T00:55:32;21.30;99.90
28773;DHT22;15925;51.222;5.678;2022-08-03T00:57:58;21.30;99.90
28773;DHT22;15925;51.222;5.678;2022-08-03T01:00:26;21.20;99.90
28773;DHT22;15925;51.222;5.678;2022-08-03T01:02:52;21.20;99.90
28773;DHT22;15925;51.222;5.678;2022-08-03T01:05:19;21.20;99.90
28773;DHT22;15925;51.222;5.678;2022-08-03T01:07:53;21.10;99.90
28773;DHT22;15925;51.222;5.678;2022-08-03T01:13:24;21.00;99.90
28773;DHT22;15925;51.222;5.678;2022-08-03T01:16:12;20.90;99.90
28773;DHT22;15925;51.222;5.678;2022-08-03T01:27:12;20.90;99.90
28773;DHT22;15925;51.222;5.678;2022-08-03T01:30:03;20.90;99.90
28773;DHT22;15925;51.222;5.678;2022-08-03T01:32:57;20.50;99.90
28773;DHT22;15925;51.222;5.678;2022-08-03T01:38:06;20.50;99.90
28773;DHT22;15925;51.222;5.678;2022-08-03T01:40:35;20.50;99.90
28773;DHT22;15925;51.222;5.678;2022-08-03T01:43:03;20.60;99.90
28773;DHT22;15925;51.222;5.678;2022-08-03T01:45:31;20.50;99.90
28773;DHT22;15925;51.222;5.678;2022-08-03T01:47:59;20.50;99.90
28773;DHT22;15925;51.222;5.678;2022-08-03T01:50:28;20.50;99.90
28773;DHT22;15925;51.222;5.678;2022-08-03T01:52:56;20.50;99.90
28773;DHT22;15925;51.222;5.678;2022-08-03T01:55:24;20.50;99.90
28773;DHT22;15925;51.222;5.678;2022-08-03T01:57:52;20.50;99.90
28773;DHT22;15925;51.222;5.678;2022-08-03T02:00:18;20.60;99.90
28773;DHT22;15925;51.222;5.678;2022-08-03T02:02:46;20.50;99.90
28773;DHT22;15925;51.222;5.678;2022-08-03T02:05:13;20.30;99.90
28773;DHT22;15925;51.222;5.678;2022-08-03T02:07:41;20.10;99.90
28773;DHT22;15925;51.222;5.678;2022-08-03T02:10:09;20.20;99.90
28773;DHT22;15925;51.222;5.678;2022-08-03T02:12:36;20.30;99.90
28773;DHT22;15925;51.222;5.678;2022-08-03T02:15:02;20.20;99.90
28773;DHT22;15925;51.222;5.678;2022-08-03T02:17:30;20.20;99.90
28773;DHT22;15925;51.222;5.678;2022-08-03T02:19:58;20.30;99.90
28773;DHT22;15925;51.222;5.678;2022-08-03T02:22:25;20.30;99.90
28773;DHT22;15925;51.222;5.678;2022-08-03T02:24:51;20.30;99.90
28773;DHT22;15925;51.222;5.678;2022-08-03T02:27:23;20.20;99.90
28773;DHT22;15925;51.222;5.678;2022-08-03T02:30:02;20.20;99.90
28773;DHT22;15925;51.222;5.678;2022-08-03T02:32:33;20.30;99.90
28773;DHT22;15925;51.222;5.678;2022-08-03T02:35:02;20.20;99.90
28773;DHT22;15925;51.222;5.678;2022-08-03T02:37:33;20.20;99.90
28773;DHT22;15925;51.222;5.678;2022-08-03T02:40:04;20.20;99.90
28773;DHT22;15925;51.222;5.678;2022-08-03T02:42:33;20.20;99.90
28773;DHT22;15925;51.222;5.678;2022-08-03T02:45:02;20.10;99.90
28773;DHT22;15925;51.222;5.678;2022-08-03T02:47:31;20.10;99.90
28773;DHT22;15925;51.222;5.678;2022-08-03T02:49:57;20.10;99.90
28773;DHT22;15925;51.222;5.678;2022-08-03T02:52:27;20.10;99.90
28773;DHT22;15925;51.222;5.678;2022-08-03T02:54:56;20.10;99.90
28773;DHT22;15925;51.222;5.678;2022-08-03T02:57:24;20.00;99.90
28773;DHT22;15925;51.222;5.678;2022-08-03T02:59:52;20.00;99.90
28773;DHT22;15925;51.222;5.678;2022-08-03T03:02:19;20.00;99.90
28773;DHT22;15925;51.222;5.678;2022-08-03T03:04:45;20.00;99.90
28773;DHT22;15925;51.222;5.678;2022-08-03T03:07:12;20.00;99.90
28773;DHT22;15925;51.222;5.678;2022-08-03T03:09:39;20.00;99.90
28773;DHT22;15925;51.222;5.678;2022-08-03T03:12:07;20.00;99.90
28773;DHT22;15925;51.222;5.678;2022-08-03T03:14:36;20.00;99.90
28773;DHT22;15925;51.222;5.678;2022-08-03T03:17:02;20.00;99.90
28773;DHT22;15925;51.222;5.678;2022-08-03T03:19:30;20.00;99.90
28773;DHT22;15925;51.222;5.678;2022-08-03T03:22:01;19.90;99.90
28773;DHT22;15925;51.222;5.678;2022-08-03T03:24:28;19.90;99.90
28773;DHT22;15925;51.222;5.678;2022-08-03T03:26:58;19.90;99.90
28773;DHT22;15925;51.222;5.678;2022-08-03T03:29:24;19.80;99.90
28773;DHT22;15925;51.222;5.678;2022-08-03T03:31:50;19.80;99.90
28773;DHT22;15925;51.222;5.678;2022-08-03T03:34:17;19.80;99.90
28773;DHT22;15925;51.222;5.678;2022-08-03T03:36:43;19.70;99.90
28773;DHT22;15925;51.222;5.678;2022-08-03T03:39:09;19.70;99.90
28773;DHT22;15925;51.222;5.678;2022-08-03T03:41:35;19.70;99.90
28773;DHT22;15925;51.222;5.678;2022-08-03T03:44:01;19.70;99.90
28773;DHT22;15925;51.222;5.678;2022-08-03T03:46:27;19.70;99.90
28773;DHT22;15925;51.222;5.678;2022-08-03T03:48:53;19.60;99.90
28773;DHT22;15925;51.222;5.678;2022-08-03T03:51:19;19.70;99.90
28773;DHT22;15925;51.222;5.678;2022-08-03T03:53:58;19.70;99.90
28773;DHT22;15925;51.222;5.678;2022-08-03T03:56:25;19.60;99.90
28773;DHT22;15925;51.222;5.678;2022-08-03T03:58:51;19.60;99.90
28773;DHT22;15925;51.222;5.678;2022-08-03T04:01:18;19.60;99.90
28773;DHT22;15925;51.222;5.678;2022-08-03T04:03:44;19.60;99.90
28773;DHT22;15925;51.222;5.678;2022-08-03T04:06:11;19.60;99.90
28773;DHT22;15925;51.222;5.678;2022-08-03T04:08:55;19.60;99.90
28773;DHT22;15925;51.222;5.678;2022-08-03T04:12:00;19.60;99.90
28773;DHT22;15925;51.222;5.678;2022-08-03T04:14:31;19.60;99.90
28773;DHT22;15925;51.222;5.678;2022-08-03T04:17:01;19.60;99.90
28773;DHT22;15925;51.222;5.678;2022-08-03T04:19:33;19.60;99.90
28773;DHT22;15925;51.222;5.678;2022-08-03T04:22:04;19.50;99.90
28773;DHT22;15925;51.222;5.678;2022-08-03T04:24:45;19.50;99.90
28773;DHT22;15925;51.222;5.678;2022-08-03T04:27:15;19.50;99.90
28773;DHT22;15925;51.222;5.678;2022-08-03T04:29:45;19.50;99.90
28773;DHT22;15925;51.222;5.678;2022-08-03T04:32:12;19.50;99.90
28773;DHT22;15925;51.222;5.678;2022-08-03T04:34:39;19.40;99.90
28773;DHT22;15925;51.222;5.678;2022-08-03T04:37:11;19.40;99.90
28773;DHT22;15925;51.222;5.678;2022-08-03T04:39:38;19.40;99.90
28773;DHT22;15925;51.222;5.678;2022-08-03T04:42:06;19.40;99.90
28773;DHT22;15925;51.222;5.678;2022-08-03T04:44:40;19.40;99.90
28773;DHT22;15925;51.222;5.678;2022-08-03T04:47:07;19.40;99.90
28773;DHT22;15925;51.222;5.678;2022-08-03T04:49:35;19.40;99.90
28773;DHT22;15925;51.222;5.678;2022-08-03T04:54:27;19.50;99.90
28773;DHT22;15925;51.222;5.678;2022-08-03T04:56:53;19.50;99.90
28773;DHT22;15925;51.222;5.678;2022-08-03T04:59:19;19.50;99.90
28773;DHT22;15925;51.222;5.678;2022-08-03T05:01:45;19.50;99.90
28773;DHT22;15925;51.222;5.678;2022-08-03T05:04:10;19.50;99.90
28773;DHT22;15925;51.222;5.678;2022-08-03T05:06:36;19.50;99.90
28773;DHT22;15925;51.222;5.678;2022-08-03T05:09:02;19.50;99.90
28773;DHT22;15925;51.222;5.678;2022-08-03T05:11:28;19.50;99.90
28773;DHT22;15925;51.222;5.678;2022-08-03T05:13:54;19.50;99.90
28773;DHT22;15925;51.222;5.678;2022-08-03T05:16:20;19.60;99.90
28773;DHT22;15925;51.222;5.678;2022-08-03T05:18:46;19.60;99.90
28773;DHT22;15925;51.222;5.678;2022-08-03T05:21:12;19.60;99.90
28773;DHT22;15925;51.222;5.678;2022-08-03T05:23:42;19.60;99.90
28773;DHT22;15925;51.222;5.678;2022-08-03T05:26:08;19.70;99.90
28773;DHT22;15925;51.222;5.678;2022-08-03T05:28:37;19.70;99.90
28773;DHT22;15925;51.222;5.678;2022-08-03T05:31:02;19.70;99.90
28773;DHT22;15925;51.222;5.678;2022-08-03T05:33:28;19.70;99.90
28773;DHT22;15925;51.222;5.678;2022-08-03T05:35:54;19.70;99.90
28773;DHT22;15925;51.222;5.678;2022-08-03T05:38:20;19.70;99.90
28773;DHT22;15925;51.222;5.678;2022-08-03T05:40:46;19.70;99.90
28773;DHT22;15925;51.222;5.678;2022-08-03T05:43:11;19.60;99.90
28773;DHT22;15925;51.222;5.678;2022-08-03T05:45:37;19.70;99.90
28773;DHT22;15925;51.222;5.678;2022-08-03T05:48:06;19.70;99.90
28773;DHT22;15925;51.222;5.678;2022-08-03T05:50:32;19.60;99.90
28773;DHT22;15925;51.222;5.678;2022-08-03T05:52:58;19.60;99.90
28773;DHT22;15925;51.222;5.678;2022-08-03T05:55:24;19.60;99.90
28773;DHT22;15925;51.222;5.678;2022-08-03T05:57:50;19.60;99.90
28773;DHT22;15925;51.222;5.678;2022-08-03T06:00:16;19.60;99.90
28773;DHT22;15925;51.222;5.678;2022-08-03T06:02:42;19.60;99.90
28773;DHT22;15925;51.222;5.678;2022-08-03T06:05:08;19.70;99.90
28773;DHT22;15925;51.222;5.678;2022-08-03T06:07:34;19.60;99.90
28773;DHT22;15925;51.222;5.678;2022-08-03T06:10:01;19.70;99.90
28773;DHT22;15925;51.222;5.678;2022-08-03T06:12:28;19.70;99.90
28773;DHT22;15925;51.222;5.678;2022-08-03T06:14:53;19.70;99.90
28773;DHT22;15925;51.222;5.678;2022-08-03T06:17:19;19.70;99.90
28773;DHT22;15925;51.222;5.678;2022-08-03T06:19:45;19.80;99.90
28773;DHT22;15925;51.222;5.678;2022-08-03T06:22:11;19.80;99.90
28773;DHT22;15925;51.222;5.678;2022-08-03T06:24:36;19.90;99.90
28773;DHT22;15925;51.222;5.678;2022-08-03T06:27:02;19.90;99.90
28773;DHT22;15925;51.222;5.678;2022-08-03T06:29:29;19.90;99.90
28773;DHT22;15925;51.222;5.678;2022-08-03T06:31:55;20.00;99.90
28773;DHT22;15925;51.222;5.678;2022-08-03T06:34:21;20.00;99.90
28773;DHT22;15925;51.222;5.678;2022-08-03T06:36:47;20.10;99.90
28773;DHT22;15925;51.222;5.678;2022-08-03T06:39:15;20.20;99.90
28773;DHT22;15925;51.222;5.678;2022-08-03T06:41:41;20.20;99.90
28773;DHT22;15925;51.222;5.678;2022-08-03T06:44:07;20.40;99.90
28773;DHT22;15925;51.222;5.678;2022-08-03T06:46:33;20.50;99.90
28773;DHT22;15925;51.222;5.678;2022-08-03T06:48:59;20.50;99.90
28773;DHT22;15925;51.222;5.678;2022-08-03T06:51:25;20.60;99.90
28773;DHT22;15925;51.222;5.678;2022-08-03T06:53:51;20.80;99.90
28773;DHT22;15925;51.222;5.678;2022-08-03T06:56:17;21.00;99.90
28773;DHT22;15925;51.222;5.678;2022-08-03T06:58:42;21.00;99.90
28773;DHT22;15925;51.222;5.678;2022-08-03T07:01:08;21.10;99.90
28773;DHT22;15925;51.222;5.678;2022-08-03T07:03:34;21.20;99.90
28773;DHT22;15925;51.222;5.678;2022-08-03T07:06:00;21.40;99.90
28773;DHT22;15925;51.222;5.678;2022-08-03T07:08:26;21.50;99.90
28773;DHT22;15925;51.222;5.678;2022-08-03T07:10:52;21.70;99.90
28773;DHT22;15925;51.222;5.678;2022-08-03T07:13:18;21.70;99.90
28773;DHT22;15925;51.222;5.678;2022-08-03T07:15:43;21.80;99.90
28773;DHT22;15925;51.222;5.678;2022-08-03T07:18:09;21.90;99.90
28773;DHT22;15925;51.222;5.678;2022-08-03T07:20:35;22.10;99.90
28773;DHT22;15925;51.222;5.678;2022-08-03T07:23:01;22.30;99.90
28773;DHT22;15925;51.222;5.678;2022-08-03T07:25:27;22.40;99.90
28773;DHT22;15925;51.222;5.678;2022-08-03T07:27:53;22.60;99.90
28773;DHT22;15925;51.222;5.678;2022-08-03T07:30:19;22.60;99.90
28773;DHT22;15925;51.222;5.678;2022-08-03T07:32:44;22.70;99.90
28773;DHT22;15925;51.222;5.678;2022-08-03T07:35:10;22.90;99.90
28773;DHT22;15925;51.222;5.678;2022-08-03T07:37:36;23.10;99.90
28773;DHT22;15925;51.222;5.678;2022-08-03T07:40:03;23.20;99.90
28773;DHT22;15925;51.222;5.678;2022-08-03T07:42:30;23.20;99.90
28773;DHT22;15925;51.222;5.678;2022-08-03T07:44:56;23.30;99.90
28773;DHT22;15925;51.222;5.678;2022-08-03T07:47:23;23.40;99.90
28773;DHT22;15925;51.222;5.678;2022-08-03T07:49:50;23.40;99.90
28773;DHT22;15925;51.222;5.678;2022-08-03T07:52:16;23.60;99.90
28773;DHT22;15925;51.222;5.678;2022-08-03T07:55:01;23.70;99.90
28773;DHT22;15925;51.222;5.678;2022-08-03T07:57:26;23.90;99.90
28773;DHT22;15925;51.222;5.678;2022-08-03T07:59:52;23.90;99.90
28773;DHT22;15925;51.222;5.678;2022-08-03T08:02:18;24.00;99.90
28773;DHT22;15925;51.222;5.678;2022-08-03T08:04:44;24.10;99.90
28773;DHT22;15925;51.222;5.678;2022-08-03T08:07:10;24.30;99.90
28773;DHT22;15925;51.222;5.678;2022-08-03T08:09:36;24.40;99.90
28773;DHT22;15925;51.222;5.678;2022-08-03T08:12:02;24.40;99.90
28773;DHT22;15925;51.222;5.678;2022-08-03T08:14:28;24.60;99.90
28773;DHT22;15925;51.222;5.678;2022-08-03T08:16:54;24.70;99.90
28773;DHT22;15925;51.222;5.678;2022-08-03T08:19:20;24.80;99.90
28773;DHT22;15925;51.222;5.678;2022-08-03T08:21:45;24.90;99.90
28773;DHT22;15925;51.222;5.678;2022-08-03T08:24:11;25.00;99.90
28773;DHT22;15925;51.222;5.678;2022-08-03T08:26:37;25.10;99.90
28773;DHT22;15925;51.222;5.678;2022-08-03T08:29:03;25.20;99.90
28773;DHT22;15925;51.222;5.678;2022-08-03T08:31:29;25.30;99.90
28773;DHT22;15925;51.222;5.678;2022-08-03T08:33:56;25.30;99.90
28773;DHT22;15925;51.222;5.678;2022-08-03T08:36:22;25.40;99.90
28773;DHT22;15925;51.222;5.678;2022-08-03T08:38:48;25.60;99.90
28773;DHT22;15925;51.222;5.678;2022-08-03T08:41:15;25.70;99.90
28773;DHT22;15925;51.222;5.678;2022-08-03T08:43:41;25.80;99.90
28773;DHT22;15925;51.222;5.678;2022-08-03T08:46:11;25.90;99.90
28773;DHT22;15925;51.222;5.678;2022-08-03T08:48:41;26.00;99.90
28773;DHT22;15925;51.222;5.678;2022-08-03T08:51:10;26.00;99.90
28773;DHT22;15925;51.222;5.678;2022-08-03T08:53:40;26.10;99.90
28773;DHT22;15925;51.222;5.678;2022-08-03T08:56:08;26.10;99.90
28773;DHT22;15925;51.222;5.678;2022-08-03T08:58:48;26.20;99.90
28773;DHT22;15925;51.222;5.678;2022-08-03T09:01:19;26.30;99.90
28773;DHT22;15925;51.222;5.678;2022-08-03T09:03:47;26.40;99.90
28773;DHT22;15925;51.222;5.678;2022-08-03T09:06:13;26.50;99.90
28773;DHT22;15925;51.222;5.678;2022-08-03T09:08:40;26.60;99.90
28773;DHT22;15925;51.222;5.678;2022-08-03T09:11:05;26.70;99.90
28773;DHT22;15925;51.222;5.678;2022-08-03T09:13:33;26.80;99.90
28773;DHT22;15925;51.222;5.678;2022-08-03T09:18:36;27.00;99.90
28773;DHT22;15925;51.222;5.678;2022-08-03T09:23:49;27.20;99.90
28773;DHT22;15925;51.222;5.678;2022-08-03T09:26:22;27.20;99.90
28773;DHT22;15925;51.222;5.678;2022-08-03T09:29:03;27.40;99.90
28773;DHT22;15925;51.222;5.678;2022-08-03T09:31:37;27.40;99.90
28773;DHT22;15925;51.222;5.678;2022-08-03T09:34:07;27.50;99.90
28773;DHT22;15925;51.222;5.678;2022-08-03T09:36:42;27.60;99.90
28773;DHT22;15925;51.222;5.678;2022-08-03T09:42:10;27.80;99.90
28773;DHT22;15925;51.222;5.678;2022-08-03T09:44:47;27.90;99.90
28773;DHT22;15925;51.222;5.678;2022-08-03T09:47:16;28.00;99.90
28773;DHT22;15925;51.222;5.678;2022-08-03T09:50:05;28.10;99.90
28773;DHT22;15925;51.222;5.678;2022-08-03T09:54:59;28.20;99.90
28773;DHT22;15925;51.222;5.678;2022-08-03T09:57:27;28.30;99.90
28773;DHT22;15925;51.222;5.678;2022-08-03T09:59:53;28.40;99.90
28773;DHT22;15925;51.222;5.678;2022-08-03T10:02:39;28.40;99.90
28773;DHT22;15925;51.222;5.678;2022-08-03T10:05:06;28.50;99.90
28773;DHT22;15925;51.222;5.678;2022-08-03T10:07:44;28.60;99.90
28773;DHT22;15925;51.222;5.678;2022-08-03T10:10:10;28.70;99.90
28773;DHT22;15925;51.222;5.678;2022-08-03T10:12:37;28.80;99.90
28773;DHT22;15925;51.222;5.678;2022-08-03T10:15:04;28.90;99.90
28773;DHT22;15925;51.222;5.678;2022-08-03T10:17:30;28.90;99.90
28773;DHT22;15925;51.222;5.678;2022-08-03T10:19:56;29.00;99.90
28773;DHT22;15925;51.222;5.678;2022-08-03T10:22:26;29.10;99.90
28773;DHT22;15925;51.222;5.678;2022-08-03T10:24:54;29.20;99.90
28773;DHT22;15925;51.222;5.678;2022-08-03T10:27:22;29.30;99.90
28773;DHT22;15925;51.222;5.678;2022-08-03T10:29:54;29.50;99.90
28773;DHT22;15925;51.222;5.678;2022-08-03T10:32:27;29.50;99.90
28773;DHT22;15925;51.222;5.678;2022-08-03T10:35:07;29.40;99.90
28773;DHT22;15925;51.222;5.678;2022-08-03T10:37:43;29.60;99.90
28773;DHT22;15925;51.222;5.678;2022-08-03T10:40:12;29.60;99.90
28773;DHT22;15925;51.222;5.678;2022-08-03T10:42:41;29.60;99.90
28773;DHT22;15925;51.222;5.678;2022-08-03T10:45:20;29.60;99.90
28773;DHT22;15925;51.222;5.678;2022-08-03T10:47:50;29.80;99.80
28773;DHT22;15925;51.222;5.678;2022-08-03T10:50:18;29.80;99.90
28773;DHT22;15925;51.222;5.678;2022-08-03T10:52:58;29.80;99.90
28773;DHT22;15925;51.222;5.678;2022-08-03T10:55:33;29.90;98.80
28773;DHT22;15925;51.222;5.678;2022-08-03T11:01:10;30.10;98.70
28773;DHT22;15925;51.222;5.678;2022-08-03T11:04:14;30.20;99.10
28773;DHT22;15925;51.222;5.678;2022-08-03T11:06:40;30.20;98.00
28773;DHT22;15925;51.222;5.678;2022-08-03T11:11:36;30.30;98.60
28773;DHT22;15925;51.222;5.678;2022-08-03T11:14:07;30.30;98.70
28773;DHT22;15925;51.222;5.678;2022-08-03T11:16:39;30.40;98.50
28773;DHT22;15925;51.222;5.678;2022-08-03T11:19:10;30.20;98.50
28773;DHT22;15925;51.222;5.678;2022-08-03T11:30:09;30.60;96.50
28773;DHT22;15925;51.222;5.678;2022-08-03T11:35:13;30.90;98.00
28773;DHT22;15925;51.222;5.678;2022-08-03T11:40:47;30.90;96.50
28773;DHT22;15925;51.222;5.678;2022-08-03T11:48:27;31.00;97.00
28773;DHT22;15925;51.222;5.678;2022-08-03T11:50:53;31.10;96.90
28773;DHT22;15925;51.222;5.678;2022-08-03T11:53:19;31.10;96.90
28773;DHT22;15925;51.222;5.678;2022-08-03T11:55:46;31.20;96.20
28773;DHT22;15925;51.222;5.678;2022-08-03T11:58:19;31.30;97.00
28773;DHT22;15925;51.222;5.678;2022-08-03T12:00:45;31.30;96.80
28773;DHT22;15925;51.222;5.678;2022-08-03T12:03:16;31.30;96.70
28773;DHT22;15925;51.222;5.678;2022-08-03T12:05:48;31.20;96.40
28773;DHT22;15925;51.222;5.678;2022-08-03T12:08:17;31.20;96.30
28773;DHT22;15925;51.222;5.678;2022-08-03T12:10:48;31.30;96.20
28773;DHT22;15925;51.222;5.678;2022-08-03T12:13:15;31.40;96.40
28773;DHT22;15925;51.222;5.678;2022-08-03T12:15:42;31.50;96.30
28773;DHT22;15925;51.222;5.678;2022-08-03T12:18:16;31.50;96.20
28773;DHT22;15925;51.222;5.678;2022-08-03T12:20:43;31.60;95.90
28773;DHT22;15925;51.222;5.678;2022-08-03T12:23:09;31.60;96.00
28773;DHT22;15925;51.222;5.678;2022-08-03T12:25:38;31.70;95.90
28773;DHT22;15925;51.222;5.678;2022-08-03T12:30:37;31.70;95.70
28773;DHT22;15925;51.222;5.678;2022-08-03T12:33:23;31.70;95.70
28773;DHT22;15925;51.222;5.678;2022-08-03T12:36:15;31.70;95.20
28773;DHT22;15925;51.222;5.678;2022-08-03T12:38:41;31.70;94.30
28773;DHT22;15925;51.222;5.678;2022-08-03T12:41:09;31.80;95.50
28773;DHT22;15925;51.222;5.678;2022-08-03T12:43:50;31.90;95.50
28773;DHT22;15925;51.222;5.678;2022-08-03T12:46:17;31.90;95.00
28773;DHT22;15925;51.222;5.678;2022-08-03T12:51:32;32.00;94.20
28773;DHT22;15925;51.222;5.678;2022-08-03T12:53:58;31.60;95.10
28773;DHT22;15925;51.222;5.678;2022-08-03T12:56:24;31.50;95.20
28773;DHT22;15925;51.222;5.678;2022-08-03T12:58:50;31.60;94.10
28773;DHT22;15925;51.222;5.678;2022-08-03T13:01:18;31.60;95.00
28773;DHT22;15925;51.222;5.678;2022-08-03T13:03:46;31.70;95.00
28773;DHT22;15925;51.222;5.678;2022-08-03T13:06:13;31.80;95.10
28773;DHT22;15925;51.222;5.678;2022-08-03T13:08:40;31.90;95.00
28773;DHT22;15925;51.222;5.678;2022-08-03T13:11:23;31.90;94.90
28773;DHT22;15925;51.222;5.678;2022-08-03T13:13:50;31.90;94.00
28773;DHT22;15925;51.222;5.678;2022-08-03T13:16:17;32.10;94.80
28773;DHT22;15925;51.222;5.678;2022-08-03T13:18:43;32.10;94.40
28773;DHT22;15925;51.222;5.678;2022-08-03T13:21:12;32.20;94.40
28773;DHT22;15925;51.222;5.678;2022-08-03T13:23:38;32.30;94.40
28773;DHT22;15925;51.222;5.678;2022-08-03T13:26:03;32.20;94.30
28773;DHT22;15925;51.222;5.678;2022-08-03T13:28:29;32.20;94.20
28773;DHT22;15925;51.222;5.678;2022-08-03T13:30:55;31.90;94.20
28773;DHT22;15925;51.222;5.678;2022-08-03T13:33:21;31.90;94.20
28773;DHT22;15925;51.222;5.678;2022-08-03T13:35:47;32.00;94.20
28773;DHT22;15925;51.222;5.678;2022-08-03T13:38:12;32.00;94.10
28773;DHT22;15925;51.222;5.678;2022-08-03T13:40:38;32.10;94.00
28773;DHT22;15925;51.222;5.678;2022-08-03T13:43:04;32.20;94.00
28773;DHT22;15925;51.222;5.678;2022-08-03T13:45:30;32.30;93.80
28773;DHT22;15925;51.222;5.678;2022-08-03T13:47:56;32.30;93.80
28773;DHT22;15925;51.222;5.678;2022-08-03T13:50:21;32.40;93.80
28773;DHT22;15925;51.222;5.678;2022-08-03T13:52:47;32.40;93.70
28773;DHT22;15925;51.222;5.678;2022-08-03T13:55:13;32.50;93.70
28773;DHT22;15925;51.222;5.678;2022-08-03T13:57:39;32.60;93.60
28773;DHT22;15925;51.222;5.678;2022-08-03T14:00:06;32.60;93.50
28773;DHT22;15925;51.222;5.678;2022-08-03T14:02:32;32.60;93.80
28773;DHT22;15925;51.222;5.678;2022-08-03T14:04:58;32.50;93.40
28773;DHT22;15925;51.222;5.678;2022-08-03T14:07:23;32.50;93.20
28773;DHT22;15925;51.222;5.678;2022-08-03T14:09:49;32.50;93.30
28773;DHT22;15925;51.222;5.678;2022-08-03T14:12:15;32.30;93.20
28773;DHT22;15925;51.222;5.678;2022-08-03T14:14:41;32.30;93.10
28773;DHT22;15925;51.222;5.678;2022-08-03T14:17:06;32.40;93.10
28773;DHT22;15925;51.222;5.678;2022-08-03T14:19:32;32.40;92.90
28773;DHT22;15925;51.222;5.678;2022-08-03T14:21:58;32.40;92.90
28773;DHT22;15925;51.222;5.678;2022-08-03T14:24:24;32.40;92.80
28773;DHT22;15925;51.222;5.678;2022-08-03T14:26:50;32.50;91.90
28773;DHT22;15925;51.222;5.678;2022-08-03T14:29:15;32.60;92.80
28773;DHT22;15925;51.222;5.678;2022-08-03T14:31:42;32.70;92.70
28773;DHT22;15925;51.222;5.678;2022-08-03T14:34:07;32.80;92.70
28773;DHT22;15925;51.222;5.678;2022-08-03T14:36:33;32.80;92.50
28773;DHT22;15925;51.222;5.678;2022-08-03T14:38:59;32.70;92.40
28773;DHT22;15925;51.222;5.678;2022-08-03T14:41:25;32.80;92.40
28773;DHT22;15925;51.222;5.678;2022-08-03T14:43:51;32.80;92.30
28773;DHT22;15925;51.222;5.678;2022-08-03T14:46:17;32.90;92.50
28773;DHT22;15925;51.222;5.678;2022-08-03T14:48:43;32.80;92.00
28773;DHT22;15925;51.222;5.678;2022-08-03T14:51:09;32.70;91.90
28773;DHT22;15925;51.222;5.678;2022-08-03T14:53:35;32.80;91.90
28773;DHT22;15925;51.222;5.678;2022-08-03T14:56:00;32.80;91.80
28773;DHT22;15925;51.222;5.678;2022-08-03T14:58:26;32.80;91.20
28773;DHT22;15925;51.222;5.678;2022-08-03T15:00:53;32.80;91.70
28773;DHT22;15925;51.222;5.678;2022-08-03T15:03:20;32.90;91.60
28773;DHT22;15925;51.222;5.678;2022-08-03T15:05:51;32.90;91.50
28773;DHT22;15925;51.222;5.678;2022-08-03T15:08:17;32.80;91.50
28773;DHT22;15925;51.222;5.678;2022-08-03T15:10:44;32.80;91.50
28773;DHT22;15925;51.222;5.678;2022-08-03T15:13:10;32.80;91.40
28773;DHT22;15925;51.222;5.678;2022-08-03T15:15:35;32.90;91.30
28773;DHT22;15925;51.222;5.678;2022-08-03T15:18:01;33.00;90.40
28773;DHT22;15925;51.222;5.678;2022-08-03T15:20:27;33.00;91.40
28773;DHT22;15925;51.222;5.678;2022-08-03T15:22:52;33.00;91.10
28773;DHT22;15925;51.222;5.678;2022-08-03T15:25:18;33.10;91.10
28773;DHT22;15925;51.222;5.678;2022-08-03T15:27:44;33.10;91.10
28773;DHT22;15925;51.222;5.678;2022-08-03T15:30:10;33.10;89.90
28773;DHT22;15925;51.222;5.678;2022-08-03T15:32:36;33.20;91.00
28773;DHT22;15925;51.222;5.678;2022-08-03T15:35:02;33.20;91.00
28773;DHT22;15925;51.222;5.678;2022-08-03T15:37:28;33.10;90.80
28773;DHT22;15925;51.222;5.678;2022-08-03T15:39:54;33.10;90.80
28773;DHT22;15925;51.222;5.678;2022-08-03T15:42:20;33.00;90.80
28773;DHT22;15925;51.222;5.678;2022-08-03T15:44:45;32.80;90.60
28773;DHT22;15925;51.222;5.678;2022-08-03T15:47:11;32.80;90.70
28773;DHT22;15925;51.222;5.678;2022-08-03T15:49:37;32.80;89.50
28773;DHT22;15925;51.222;5.678;2022-08-03T15:52:03;32.60;90.80
28773;DHT22;15925;51.222;5.678;2022-08-03T15:54:28;32.60;90.80
28773;DHT22;15925;51.222;5.678;2022-08-03T15:56:54;32.80;90.10
28773;DHT22;15925;51.222;5.678;2022-08-03T15:59:20;33.00;90.80
28773;DHT22;15925;51.222;5.678;2022-08-03T16:01:47;33.00;90.70
28773;DHT22;15925;51.222;5.678;2022-08-03T16:04:13;33.00;90.60
28773;DHT22;15925;51.222;5.678;2022-08-03T16:06:38;33.00;90.50
28773;DHT22;15925;51.222;5.678;2022-08-03T16:09:04;33.10;90.50
28773;DHT22;15925;51.222;5.678;2022-08-03T16:11:31;32.90;88.20
28773;DHT22;15925;51.222;5.678;2022-08-03T16:13:57;33.10;90.50
28773;DHT22;15925;51.222;5.678;2022-08-03T16:16:23;33.20;90.40
28773;DHT22;15925;51.222;5.678;2022-08-03T16:18:49;33.00;90.30
28773;DHT22;15925;51.222;5.678;2022-08-03T16:21:14;32.80;90.40
28773;DHT22;15925;51.222;5.678;2022-08-03T16:23:41;32.70;87.60
28773;DHT22;15925;51.222;5.678;2022-08-03T16:26:07;32.70;90.30
28773;DHT22;15925;51.222;5.678;2022-08-03T16:28:33;32.60;90.70
28773;DHT22;15925;51.222;5.678;2022-08-03T16:31:03;32.50;90.30
28773;DHT22;15925;51.222;5.678;2022-08-03T16:33:29;32.60;90.50